Breckenridge, TX

6:28 PM CDT on June 20, 2018 (GMT -0500)
Stephens County

Weather History for KBKD - January, 2014

Change the Weather History Date:

Sunday, January 5, 2014

  Actual Average (KMWL) Record (KMWL)
Temperature  
Mean Temperature 29 °F -  
Max Temperature 38 °F 56 °F 80 °F (2008)
Min Temperature 19 °F 33 °F 18 °F (2014)
Degree Days  
Heating Degree Days 36    
Moisture  
Dew Point 15 °F    
Average Humidity 51    
Maximum Humidity 71    
Minimum Humidity 32    
Precipitation  
Precipitation 0.00 in - - ()
Sea Level Pressure  
Sea Level Pressure 30.24 in    
Wind  
Wind Speed 15 mph (North)    
Max Wind Speed 23 mph    
Max Gust Speed 32 mph    
Visibility 10 miles    
Events      
Averages and records for this station are not official NWS values.
T = Trace of Precipitation, MM = Missing Value Source: NWS Daily Summary

Daily Weather History Graph

Daily Weather History Graph

Search for Another Location

Airport or City:

Astronomy

Jan. 05, 2014 Rise Set
Actual Time 7:38 AM CST 5:43 PM CST
Civil Twilight 7:11 AM CST 6:10 PM CST
Nautical Twilight 6:40 AM CST 6:41 PM CST
Astronomical Twilight 6:10 AM CST 7:11 PM CST
Moon 10:38 AM CST (1/5) 10:54 PM CST (1/5)
Length of Visible Light 10h 59m
Length of Day
10h 05m
Waxing Crescent, 25% of the Moon is Illuminated
Jan 5
Waxing Crescent
Jan 7
First Quarter
Jan 15
Full
Jan 23
Last Quarter
Jan 30
New

Hourly Weather History & Observations

Time (CST) Temp. Windchill Dew Point Humidity Pressure Visibility Wind Dir Wind Speed Gust Speed Precip Events Conditions
12:15 AM 36.9 °F 28.2 °F 27.9 °F 70% 29.90 in 10.0 mi North 13.8 mph 25.3 mph N/A   Clear
12:35 AM 35.8 °F 26.9 °F 27.1 °F 71% 29.91 in 10.0 mi NNW 13.8 mph 21.9 mph N/A   Clear
12:55 AM 35.2 °F 24.4 °F 26.6 °F 71% 29.92 in 10.0 mi North 19.6 mph 25.3 mph N/A   Scattered Clouds
1:15 AM 34.5 °F 24.5 °F 26.1 °F 71% 29.93 in 10.0 mi NNW 16.1 mph 23.0 mph N/A   Scattered Clouds
1:35 AM 33.3 °F 22.1 °F 23.9 °F 69% 29.95 in 10.0 mi North 18.4 mph 26.5 mph N/A   Scattered Clouds
1:55 AM 32.9 °F 23.2 °F 23.4 °F 68% 29.96 in 10.0 mi North 13.8 mph 32.2 mph N/A   Scattered Clouds
2:15 AM 32.5 °F 22.3 °F 23.2 °F 68% 29.98 in 10.0 mi North 15.0 mph 21.9 mph N/A   Scattered Clouds
2:35 AM 32.5 °F 22.7 °F 23.0 °F 68% 29.98 in 10.0 mi North 13.8 mph 21.9 mph N/A   Scattered Clouds
2:55 AM 32.2 °F 23.2 °F 23.0 °F 69% 30.00 in 10.0 mi NNW 11.5 mph 18.4 mph N/A   Scattered Clouds
3:15 AM 32.4 °F 21.7 °F 21.7 °F 65% 30.01 in 10.0 mi NNW 16.1 mph 24.2 mph N/A   Scattered Clouds
3:35 AM 32.4 °F 21.3 °F 21.7 °F 65% 30.02 in 10.0 mi NNW 17.3 mph 24.2 mph N/A   Clear
3:55 AM 32.4 °F 21.7 °F 21.7 °F 65% 30.03 in 10.0 mi NNW 16.1 mph 20.7 mph N/A   Mostly Cloudy
4:15 AM 32.2 °F 21.8 °F 21.4 °F 64% 30.03 in 10.0 mi NNW 15.0 mph 25.3 mph N/A   Mostly Cloudy
4:35 AM 32.0 °F 21.2 °F 20.1 °F 62% 30.03 in 10.0 mi NNW 16.1 mph 27.6 mph N/A   Scattered Clouds
4:55 AM 31.5 °F 21.4 °F 19.8 °F 62% 30.05 in 10.0 mi NNW 13.8 mph 21.9 mph N/A   Clear
5:15 AM 31.1 °F 20.5 °F 20.1 °F 64% 30.06 in 10.0 mi NNW 15.0 mph 23.0 mph N/A   Scattered Clouds
5:35 AM 30.0 °F 17.5 °F 19.0 °F 64% 30.08 in 10.0 mi NNW 19.6 mph 29.9 mph N/A   Mostly Cloudy
5:55 AM 29.7 °F 17.8 °F 18.9 °F 64% 30.10 in 10.0 mi NNW 17.3 mph 27.6 mph N/A   Overcast
6:15 AM 29.5 °F 19.3 °F 18.9 °F 65% 30.11 in 10.0 mi NNW 12.7 mph 21.9 mph N/A   Mostly Cloudy
6:35 AM 29.3 °F 16.2 °F 19.0 °F 66% 30.12 in 10.0 mi NNW 20.7 mph 32.2 mph N/A   Overcast
6:55 AM 29.1 °F 16.7 °F 18.5 °F 65% 30.13 in 10.0 mi NNW 18.4 mph 29.9 mph N/A   Overcast
7:15 AM 28.4 °F 17.0 °F 17.4 °F 63% 30.15 in 10.0 mi North 15.0 mph 28.8 mph N/A   Mostly Cloudy
7:35 AM 28.4 °F 16.2 °F 17.6 °F 64% 30.16 in 10.0 mi North 17.3 mph 21.9 mph N/A   Overcast
7:55 AM 28.0 °F 17.5 °F 17.6 °F 65% 30.18 in 10.0 mi North 12.7 mph 18.4 mph N/A   Overcast
8:15 AM 28.4 °F 19.1 °F 18.3 °F 66% 30.19 in 10.0 mi North 10.4 mph - N/A   Overcast
8:35 AM 28.9 °F 20.4 °F 18.5 °F 65% 30.20 in 10.0 mi NNW 9.2 mph 20.7 mph N/A   Overcast
8:55 AM 30.0 °F 16.6 °F 18.7 °F 63% 30.22 in 10.0 mi NNW 23.0 mph 29.9 mph N/A   Overcast
9:15 AM 30.2 °F 18.5 °F 18.7 °F 62% 30.23 in 10.0 mi North 17.3 mph 24.2 mph N/A   Overcast
9:35 AM 31.3 °F 19.2 °F 19.2 °F 61% 30.24 in 10.0 mi North 19.6 mph 25.3 mph N/A   Overcast
9:55 AM 32.2 °F 21.4 °F 17.4 °F 55% 30.25 in 10.0 mi North 16.1 mph 25.3 mph N/A   Mostly Cloudy
10:15 AM 32.7 °F 20.4 °F 15.8 °F 50% 30.26 in 10.0 mi North 21.9 mph 27.6 mph N/A   Scattered Clouds
10:35 AM 32.7 °F 22.1 °F 15.6 °F 49% 30.26 in 10.0 mi North 16.1 mph 26.5 mph N/A   Clear
10:55 AM 32.9 °F 21.6 °F 15.4 °F 49% 30.27 in 10.0 mi North 18.4 mph 29.9 mph N/A   Scattered Clouds
11:15 AM 33.8 °F 23.9 °F 15.4 °F 47% 30.27 in 10.0 mi North 15.0 mph 25.3 mph N/A   Scattered Clouds
11:35 AM 34.5 °F 24.8 °F 15.8 °F 46% 30.28 in 10.0 mi NNW 15.0 mph 23.0 mph N/A   Scattered Clouds
11:55 AM 34.7 °F 25.1 °F 15.6 °F 46% 30.27 in 10.0 mi NNW 15.0 mph 27.6 mph N/A   Scattered Clouds
12:15 PM 35.8 °F 25.7 °F 15.8 °F 44% 30.27 in 10.0 mi North 17.3 mph 23.0 mph N/A   Clear
12:35 PM 36.7 °F 27.2 °F 16.2 °F 43% 30.25 in 10.0 mi North 16.1 mph 24.2 mph N/A   Clear
12:55 PM 37.6 °F 29.1 °F 16.3 °F 42% 30.25 in 10.0 mi North 13.8 mph 21.9 mph N/A   Scattered Clouds
1:15 PM 37.8 °F 30.7 °F 16.2 °F 42% 30.25 in 10.0 mi NNW 10.4 mph 21.9 mph N/A   Scattered Clouds
1:35 PM 38.1 °F 29.1 °F 15.8 °F 40% 30.25 in 10.0 mi NNW 16.1 mph 27.6 mph N/A   Clear
1:55 PM 38.8 °F 30.4 °F 16.0 °F 40% 30.25 in 10.0 mi NNW 15.0 mph 20.7 mph N/A   Clear
2:15 PM 38.3 °F 30.1 °F 15.1 °F 39% 30.25 in 10.0 mi North 13.8 mph 23.0 mph N/A   Clear
2:35 PM 38.5 °F 30.7 °F 13.3 °F 36% 30.26 in 10.0 mi North 12.7 mph 23.0 mph N/A   Clear
2:55 PM 38.7 °F 32.4 °F 13.3 °F 35% 30.27 in 10.0 mi North 9.2 mph 20.7 mph N/A   Clear
3:15 PM 38.5 °F 29.9 °F 10.8 °F 32% 30.27 in 10.0 mi North 15.0 mph 20.7 mph N/A   Clear
3:35 PM 38.5 °F 29.9 °F 10.6 °F 32% 30.28 in 10.0 mi North 15.0 mph 21.9 mph N/A   Clear
3:55 PM 38.1 °F 30.2 °F 10.6 °F 32% 30.29 in 10.0 mi NNW 12.7 mph 20.7 mph N/A   Clear
4:15 PM 37.4 °F 29.3 °F 9.9 °F 32% 30.30 in 10.0 mi North 12.7 mph 21.9 mph N/A   Clear
4:35 PM 36.9 °F 26.8 °F 9.7 °F 33% 30.31 in 10.0 mi NNW 18.4 mph 23.0 mph N/A   Clear
4:55 PM 36.5 °F 27.8 °F 10.2 °F 34% 30.32 in 10.0 mi North 13.8 mph - N/A   Clear
5:15 PM 35.6 °F 27.5 °F 8.6 °F 33% 30.33 in 10.0 mi North 11.5 mph 20.7 mph N/A   Clear
5:35 PM 34.3 °F 25.9 °F 8.6 °F 34% 30.33 in 10.0 mi North 11.5 mph - N/A   Clear
5:55 PM 33.1 °F 24.9 °F 7.7 °F 35% 30.35 in 10.0 mi NNE 10.4 mph - N/A   Clear
6:15 PM 32.0 °F 24.8 °F 8.1 °F 37% 30.36 in 10.0 mi NNE 8.1 mph - N/A   Clear
6:35 PM 32.0 °F 23.0 °F 7.3 °F 36% 30.38 in 10.0 mi North 11.5 mph 18.4 mph N/A   Clear
6:55 PM 31.8 °F 22.8 °F 6.4 °F 34% 30.39 in 10.0 mi North 11.5 mph 18.4 mph N/A   Clear
7:15 PM 30.7 °F 22.6 °F 6.6 °F 36% 30.40 in 10.0 mi North 9.2 mph - N/A   Clear
7:35 PM 30.2 °F 21.9 °F 7.2 °F 38% 30.42 in 10.0 mi North 9.2 mph 16.1 mph N/A   Clear
7:55 PM 29.3 °F 20.8 °F 7.5 °F 40% 30.44 in 10.0 mi NNE 9.2 mph 17.3 mph N/A   Clear
8:15 PM 28.8 °F 18.4 °F 7.5 °F 41% 30.45 in 10.0 mi NNE 12.7 mph 18.4 mph N/A   Clear
8:35 PM 28.2 °F 17.7 °F 7.7 °F 42% 30.46 in 10.0 mi North 12.7 mph 23.0 mph N/A   Clear
8:55 PM 27.5 °F 16.3 °F 8.2 °F 44% 30.47 in 10.0 mi North 13.8 mph 19.6 mph N/A   Clear
9:15 PM 26.6 °F 16.8 °F 8.6 °F 47% 30.48 in 10.0 mi NNE 10.4 mph 16.1 mph N/A   Clear
9:35 PM 26.4 °F 17.3 °F 8.4 °F 47% 30.49 in 10.0 mi NNE 9.2 mph 20.7 mph N/A   Clear
9:55 PM 25.5 °F 18.7 °F 9.0 °F 50% 30.51 in 10.0 mi North 5.8 mph - N/A   Clear
10:15 PM 24.6 °F 13.8 °F 9.1 °F 52% 30.52 in 10.0 mi North 11.5 mph - N/A   Clear
10:35 PM 23.2 °F 11.4 °F 7.0 °F 50% 30.54 in 10.0 mi NNE 12.7 mph 20.7 mph N/A   Clear
10:55 PM 22.1 °F 8.0 °F 4.1 °F 46% 30.54 in 10.0 mi North 17.3 mph 25.3 mph N/A   Clear
11:15 PM 21.0 °F 7.6 °F 3.2 °F 46% 30.54 in 10.0 mi NNE 15.0 mph 26.5 mph N/A   Clear
11:35 PM 20.5 °F 8.0 °F 4.1 °F 49% 30.56 in 10.0 mi NNE 12.7 mph 20.7 mph N/A   Clear
11:55 PM 19.9 °F 9.3 °F 4.8 °F 52% 30.55 in 10.0 mi NNE 9.2 mph - N/A   Clear